createdAt,value
2023-01-02T00:00:10.485Z,1002.7
2023-01-02T00:01:26.771Z,1002.7
2023-01-02T00:02:43.071Z,1002.7
2023-01-02T00:03:59.355Z,1002.7
2023-01-02T00:05:15.652Z,1002.7
2023-01-02T00:06:31.950Z,1002.6
2023-01-02T00:07:48.242Z,1002.6
2023-01-02T00:09:04.538Z,1002.6
2023-01-02T00:10:20.830Z,1002.6
2023-01-02T00:11:37.112Z,1002.6
2023-01-02T00:12:53.403Z,1002.6
2023-01-02T00:14:08.724Z,1002.6
2023-01-02T00:15:25.014Z,1002.7
2023-01-02T00:16:41.308Z,1002.6
2023-01-02T00:17:57.594Z,1002.6
2023-01-02T00:19:13.888Z,1002.7
2023-01-02T00:20:30.184Z,1002.7
2023-01-02T00:21:46.479Z,1002.7
2023-01-02T00:23:02.760Z,1002.7
2023-01-02T00:24:19.063Z,1002.6
2023-01-02T00:25:35.340Z,1002.6
2023-01-02T00:26:51.635Z,1002.6
2023-01-02T00:28:07.923Z,1002.6
2023-01-02T00:29:24.231Z,1002.5
2023-01-02T00:30:39.541Z,1002.5
2023-01-02T00:31:55.835Z,1002.5
2023-01-02T00:33:12.118Z,1002.5
2023-01-02T00:34:28.415Z,1002.5
2023-01-02T00:35:44.696Z,1002.5
2023-01-02T00:37:00.991Z,1002.5
2023-01-02T00:38:16.313Z,1002.4
2023-01-02T00:39:32.602Z,1002.4
2023-01-02T00:40:48.902Z,1002.5
2023-01-02T00:42:05.182Z,1002.4
2023-01-02T00:43:21.488Z,1002.4
2023-01-02T00:44:37.769Z,1002.4
2023-01-02T00:45:54.059Z,1002.5
2023-01-02T00:47:10.353Z,1002.5
2023-01-02T00:48:26.655Z,1002.4
2023-01-02T00:49:42.936Z,1002.5
2023-01-02T00:50:59.227Z,1002.5
2023-01-02T00:52:15.527Z,1002.4
2023-01-02T00:53:31.809Z,1002.4
2023-01-02T00:54:47.134Z,1002.5
2023-01-02T00:56:03.420Z,1002.4
2023-01-02T00:57:19.712Z,1002.6
2023-01-02T00:58:36.006Z,1002.5
2023-01-02T00:59:52.309Z,1002.5
2023-01-02T01:01:08.587Z,1002.5
2023-01-02T01:02:24.870Z,1002.5
2023-01-02T01:03:41.168Z,1002.5
2023-01-02T01:04:57.474Z,1002.4
2023-01-02T01:06:13.771Z,1002.4
2023-01-02T01:07:30.055Z,1002.5
2023-01-02T01:08:46.337Z,1002.5
2023-01-02T01:10:02.644Z,1002.4
2023-01-02T01:11:17.937Z,1002.4
2023-01-02T01:12:34.228Z,1002.4
2023-01-02T01:13:50.523Z,1002.4
2023-01-02T01:15:06.819Z,1002.4
2023-01-02T01:16:23.109Z,1002.5
2023-01-02T01:17:39.414Z,1002.4
2023-01-02T01:18:55.697Z,1002.4
2023-01-02T01:20:11.990Z,1002.4
2023-01-02T01:21:28.283Z,1002.4
2023-01-02T01:22:44.574Z,1002.4
2023-01-02T01:24:00.873Z,1002.4
2023-01-02T01:25:17.164Z,1002.5
2023-01-02T01:26:33.458Z,1002.3
2023-01-02T01:27:48.758Z,1002.2
2023-01-02T01:29:05.061Z,1002.3
2023-01-02T01:30:21.355Z,1002.3
2023-01-02T01:31:37.627Z,1002.4
2023-01-02T01:32:53.938Z,1002.4
2023-01-02T01:34:10.215Z,1002.3
2023-01-02T01:35:26.519Z,1002.3
2023-01-02T01:36:42.805Z,1002.4
2023-01-02T01:37:59.099Z,1002.4
2023-01-02T01:39:15.387Z,1002.3
2023-01-02T01:40:31.681Z,1002.3
2023-01-02T01:41:47.978Z,1002.3
2023-01-02T01:43:04.271Z,1002.3
2023-01-02T01:44:19.575Z,1002.3
2023-01-02T01:45:35.870Z,1002.3
2023-01-02T01:46:52.163Z,1002.3
2023-01-02T01:48:08.460Z,1002.3
2023-01-02T01:49:24.750Z,1002.2
2023-01-02T01:50:41.036Z,1002.2
2023-01-02T01:51:57.327Z,1002.2
2023-01-02T01:53:13.631Z,1002.1
2023-01-02T01:54:29.907Z,1002.2
2023-01-02T01:55:46.210Z,1002.2
2023-01-02T01:57:02.497Z,1002.1
2023-01-02T01:58:18.803Z,1002.1
2023-01-02T01:59:35.088Z,1002.1
2023-01-02T02:00:50.391Z,1002
2023-01-02T02:02:06.693Z,1002
2023-01-02T02:03:22.980Z,1002.1
2023-01-02T02:04:39.276Z,1002
2023-01-02T02:05:55.563Z,1002.1
2023-01-02T02:07:11.853Z,1002.1
2023-01-02T02:08:28.139Z,1002
2023-01-02T02:09:44.442Z,1002
2023-01-02T02:11:00.734Z,1002
2023-01-02T02:12:17.035Z,1001.9
2023-01-02T02:13:33.314Z,1001.9
2023-01-02T02:14:49.603Z,1001.9
2023-01-02T02:16:05.903Z,1001.9
2023-01-02T02:17:21.207Z,1002
2023-01-02T02:18:37.496Z,1001.9
2023-01-02T02:19:53.787Z,1002
2023-01-02T02:21:10.080Z,1001.8
2023-01-02T02:22:26.382Z,1001.9
2023-01-02T02:23:42.670Z,1001.8
2023-01-02T02:24:58.974Z,1001.8
2023-01-02T02:26:15.267Z,1001.8
2023-01-02T02:27:31.559Z,1001.8
2023-01-02T02:28:47.837Z,1001.8
2023-01-02T02:30:04.126Z,1001.7
2023-01-02T02:31:20.421Z,1001.8
2023-01-02T02:32:36.713Z,1001.7
2023-01-02T02:33:52.020Z,1001.7
2023-01-02T02:35:08.326Z,1001.6
2023-01-02T02:36:24.615Z,1001.6
2023-01-02T02:37:40.902Z,1001.5
2023-01-02T02:40:13.495Z,1001.5
2023-01-02T02:41:29.775Z,1001.5
2023-01-02T02:42:46.066Z,1001.5
2023-01-02T02:44:02.371Z,1001.5
2023-01-02T02:45:18.670Z,1001.5
2023-01-02T02:46:34.963Z,1001.5
2023-01-02T02:47:51.253Z,1001.5
2023-01-02T02:49:07.547Z,1001.5
2023-01-02T02:50:22.841Z,1001.5
2023-01-02T02:51:39.129Z,1001.5
2023-01-02T02:52:55.438Z,1001.5
2023-01-02T02:54:11.724Z,1001.6
2023-01-02T02:55:28.015Z,1001.5
2023-01-02T02:56:44.310Z,1001.5
2023-01-02T02:58:00.606Z,1001.5
2023-01-02T03:00:33.180Z,1001.6
2023-01-02T03:01:49.487Z,1001.5
2023-01-02T03:03:05.776Z,1001.6
2023-01-02T03:04:22.059Z,1001.6
2023-01-02T03:05:38.351Z,1001.6
2023-01-02T03:06:53.658Z,1001.5
2023-01-02T03:08:09.951Z,1001.6
2023-01-02T03:09:26.256Z,1001.6
2023-01-02T03:10:42.549Z,1001.6
2023-01-02T03:11:58.837Z,1001.5
2023-01-02T03:13:15.132Z,1001.5
2023-01-02T03:14:31.412Z,1001.6
2023-01-02T03:15:47.714Z,1001.6
2023-01-02T03:17:03.993Z,1001.6
2023-01-02T03:18:20.290Z,1001.5
2023-01-02T03:19:36.591Z,1001.5
2023-01-02T03:20:52.879Z,1001.5
2023-01-02T03:22:09.168Z,1001.5
2023-01-02T03:23:24.487Z,1001.5
2023-01-02T03:24:40.778Z,1001.5
2023-01-02T03:25:57.073Z,1001.4
2023-01-02T03:27:13.358Z,1001.5
2023-01-02T03:28:29.653Z,1001.5
2023-01-02T03:29:45.934Z,1001.5
2023-01-02T03:31:02.243Z,1001.5
2023-01-02T03:32:18.525Z,1001.4
2023-01-02T03:33:34.815Z,1001.4
2023-01-02T03:34:51.107Z,1001.4
2023-01-02T03:37:23.699Z,1001.4
2023-01-02T03:38:39.985Z,1001.4
2023-01-02T03:39:55.294Z,1001.4
2023-01-02T03:42:27.889Z,1001.4
2023-01-02T03:43:44.174Z,1001.4
2023-01-02T03:45:00.458Z,1001.4
2023-01-02T03:46:16.762Z,1001.4
2023-01-02T03:47:33.051Z,1001.3
2023-01-02T03:48:49.334Z,1001.3
2023-01-02T03:50:05.634Z,1001.2
2023-01-02T03:51:21.922Z,1001.2
2023-01-02T03:52:38.232Z,1001.1
2023-01-02T03:53:54.513Z,1001.2
2023-01-02T03:55:10.807Z,1001.2
2023-01-02T03:56:26.113Z,1001.2
2023-01-02T03:57:42.401Z,1001.3
2023-01-02T03:58:58.709Z,1001.3
2023-01-02T04:00:14.997Z,1001.3
2023-01-02T04:01:31.289Z,1001.3
2023-01-02T04:02:47.580Z,1001.3
2023-01-02T04:04:03.878Z,1001.3
2023-01-02T04:05:20.154Z,1001.3
2023-01-02T04:06:36.000Z,1001.3
2023-01-02T04:07:52.747Z,1001.3
2023-01-02T04:09:09.047Z,1001.3
2023-01-02T04:10:25.321Z,1001.3
2023-01-02T04:11:41.629Z,1001.3
2023-01-02T04:12:56.929Z,1001.3
2023-01-02T04:14:13.228Z,1001.3
2023-01-02T04:15:29.519Z,1001.3
2023-01-02T04:16:45.811Z,1001.2
2023-01-02T04:18:02.103Z,1001.3
2023-01-02T04:19:18.399Z,1001.3
2023-01-02T04:20:34.677Z,1001.2
2023-01-02T04:21:50.978Z,1001.3
2023-01-02T04:23:07.279Z,1001.3
2023-01-02T04:24:23.558Z,1001.3
2023-01-02T04:25:39.846Z,1001.3
2023-01-02T04:26:56.145Z,1001.3
2023-01-02T04:28:12.432Z,1001.3
2023-01-02T04:29:27.759Z,1001.3
2023-01-02T04:30:44.044Z,1001.3
2023-01-02T04:32:00.333Z,1001.4
2023-01-02T04:33:16.634Z,1001.4
2023-01-02T04:34:32.920Z,1001.4
2023-01-02T04:35:49.206Z,1001.3
2023-01-02T04:37:05.512Z,1001.4
2023-01-02T04:38:21.794Z,1001.4
2023-01-02T04:39:38.084Z,1001.4
2023-01-02T04:40:54.382Z,1001.4
2023-01-02T04:42:10.663Z,1001.4
2023-01-02T04:43:26.969Z,1001.5
2023-01-02T04:44:43.261Z,1001.4
2023-01-02T04:45:58.563Z,1001.4
2023-01-02T04:47:14.868Z,1001.4
2023-01-02T04:48:31.159Z,1001.4
2023-01-02T04:49:47.444Z,1001.4
2023-01-02T04:51:03.727Z,1001.4
2023-01-02T04:52:20.019Z,1001.4
2023-01-02T04:53:35.349Z,1001.3
2023-01-02T04:54:51.641Z,1001.3
2023-01-02T04:56:07.918Z,1001.3
2023-01-02T04:57:24.221Z,1001.3
2023-01-02T04:58:40.519Z,1001.3
2023-01-02T04:59:56.808Z,1001.3
2023-01-02T05:01:13.103Z,1001.3
2023-01-02T05:02:29.387Z,1001.2
2023-01-02T05:03:45.676Z,1001.3
2023-01-02T05:05:01.966Z,1001.3
2023-01-02T05:06:18.272Z,1001.2
2023-01-02T05:07:34.549Z,1001.3
2023-01-02T05:08:50.858Z,1001.3
2023-01-02T05:10:06.160Z,1001.3
2023-01-02T05:11:22.460Z,1001.2
2023-01-02T05:12:38.754Z,1001.2
2023-01-02T05:13:55.037Z,1001.2
2023-01-02T05:15:11.320Z,1001.2
2023-01-02T05:16:27.613Z,1001.2
2023-01-02T05:17:43.919Z,1001.3
2023-01-02T05:19:00.216Z,1001.3
2023-01-02T05:20:16.503Z,1001.3
2023-01-02T05:21:32.790Z,1001.3
2023-01-02T05:22:49.092Z,1001.4
2023-01-02T05:24:05.373Z,1001.4
2023-01-02T05:25:21.667Z,1001.4
2023-01-02T05:26:36.987Z,1001.5
2023-01-02T05:27:53.261Z,1001.4
2023-01-02T05:29:09.566Z,1001.5
2023-01-02T05:30:25.848Z,1001.4
2023-01-02T05:31:42.152Z,1001.5
2023-01-02T05:32:58.445Z,1001.5
2023-01-02T05:34:14.728Z,1001.5
2023-01-02T05:35:31.015Z,1001.5
2023-01-02T05:36:47.323Z,1001.5
2023-01-02T05:38:03.612Z,1001.5
2023-01-02T05:39:19.909Z,1001.5
2023-01-02T05:40:36.203Z,1001.5
2023-01-02T05:41:52.481Z,1001.5
2023-01-02T05:43:07.803Z,1001.5
2023-01-02T05:44:24.087Z,1001.4
2023-01-02T05:45:40.371Z,1001.4
2023-01-02T05:46:56.675Z,1001.5
2023-01-02T05:48:12.956Z,1001.5
2023-01-02T05:49:29.247Z,1001.5
2023-01-02T05:50:45.544Z,1001.5
2023-01-02T05:52:01.845Z,1001.5
2023-01-02T05:53:18.127Z,1001.5
2023-01-02T05:54:34.427Z,1001.5
2023-01-02T05:55:50.711Z,1001.5
2023-01-02T05:57:07.008Z,1001.5
2023-01-02T05:58:23.295Z,1001.5
2023-01-02T05:59:38.622Z,1001.5
2023-01-02T06:00:54.906Z,1001.5
2023-01-02T06:02:11.194Z,1001.5
2023-01-02T06:03:27.482Z,1001.5
2023-01-02T06:04:43.779Z,1001.5
2023-01-02T06:06:00.075Z,1001.5
2023-01-02T06:07:16.371Z,1001.5
2023-01-02T06:08:32.656Z,1001.5
2023-01-02T06:09:48.951Z,1001.5
2023-01-02T06:11:05.240Z,1001.5
2023-01-02T06:12:21.547Z,1001.5
2023-01-02T06:13:37.838Z,1001.6
2023-01-02T06:14:54.123Z,1001.6
2023-01-02T06:16:09.425Z,1001.6
2023-01-02T06:17:25.725Z,1001.6
2023-01-02T06:18:42.013Z,1001.6
2023-01-02T06:19:58.301Z,1001.7
2023-01-02T06:21:14.600Z,1001.7
2023-01-02T06:22:30.884Z,1001.7
2023-01-02T06:23:47.174Z,1001.6
2023-01-02T06:25:03.478Z,1001.6
2023-01-02T06:26:19.761Z,1001.5
2023-01-02T06:27:36.059Z,1001.6
2023-01-02T06:28:52.365Z,1001.6
2023-01-02T06:30:08.652Z,1001.6
2023-01-02T06:31:24.943Z,1001.6
2023-01-02T06:32:40.256Z,1001.6
2023-01-02T06:33:56.543Z,1001.6
2023-01-02T06:35:12.827Z,1001.5
2023-01-02T06:36:29.116Z,1001.6
2023-01-02T06:37:45.415Z,1001.6
2023-01-02T06:39:01.710Z,1001.6
2023-01-02T06:40:17.992Z,1001.6
2023-01-02T06:41:34.285Z,1001.6
2023-01-02T06:42:50.594Z,1001.6
2023-01-02T06:44:06.874Z,1001.5
2023-01-02T06:45:23.173Z,1001.5
2023-01-02T06:46:39.465Z,1001.5
2023-01-02T06:47:55.752Z,1001.5
2023-01-02T06:49:11.010Z,1001.5
2023-01-02T06:50:27.301Z,1001.5
2023-01-02T06:51:43.552Z,1001.4
2023-01-02T06:52:59.791Z,1001.4
2023-01-02T06:54:16.028Z,1001.4
2023-01-02T06:55:32.278Z,1001.4
2023-01-02T06:56:48.557Z,1001.5
2023-01-02T06:58:04.821Z,1001.4
2023-01-02T06:59:21.050Z,1001.5
2023-01-02T07:00:37.290Z,1001.5
2023-01-02T07:01:53.519Z,1001.6
2023-01-02T07:03:09.774Z,1001.6
2023-01-02T07:04:26.003Z,1001.7
2023-01-02T07:05:41.258Z,1001.7
2023-01-02T07:06:57.502Z,1001.7
2023-01-02T07:08:13.737Z,1001.7
2023-01-02T07:09:29.976Z,1001.7
2023-01-02T07:10:46.223Z,1001.7
2023-01-02T07:12:02.444Z,1001.8
2023-01-02T07:13:18.686Z,1001.9
2023-01-02T07:14:34.934Z,1002
2023-01-02T07:15:51.164Z,1001.9
2023-01-02T07:17:07.407Z,1001.9
2023-01-02T07:18:23.651Z,1001.8
2023-01-02T07:19:39.877Z,1001.9
2023-01-02T07:20:56.124Z,1001.9
2023-01-02T07:22:11.378Z,1001.9
2023-01-02T07:23:27.616Z,1001.8
2023-01-02T07:24:43.859Z,1001.8
2023-01-02T07:26:00.101Z,1001.8
2023-01-02T07:27:16.319Z,1001.8
2023-01-02T07:28:32.565Z,1001.8
2023-01-02T07:29:48.813Z,1001.9
2023-01-02T07:31:05.037Z,1001.8
2023-01-02T07:32:21.285Z,1001.9
2023-01-02T07:33:37.520Z,1001.8
2023-01-02T07:34:53.769Z,1001.9
2023-01-02T07:36:09.990Z,1001.8
2023-01-02T07:37:26.233Z,1001.9
2023-01-02T07:38:41.493Z,1001.9
2023-01-02T07:39:57.723Z,1001.9
2023-01-02T07:41:13.967Z,1001.9
2023-01-02T07:42:30.202Z,1001.9
2023-01-02T07:43:46.440Z,1001.9
2023-01-02T07:45:02.679Z,1001.9
2023-01-02T07:46:18.924Z,1001.9
2023-01-02T07:47:35.155Z,1001.9
2023-01-02T07:48:51.396Z,1001.9
2023-01-02T07:50:07.631Z,1001.9
2023-01-02T07:51:23.870Z,1001.9
2023-01-02T07:52:40.110Z,1001.8
2023-01-02T07:53:56.355Z,1001.9
2023-01-02T07:55:11.607Z,1001.9
2023-01-02T07:56:27.857Z,1001.9
2023-01-02T07:57:44.083Z,1001.9
2023-01-02T07:59:00.329Z,1001.9
2023-01-02T08:00:16.562Z,1002
2023-01-02T08:01:32.792Z,1002
2023-01-02T08:02:49.041Z,1002
2023-01-02T08:04:05.279Z,1002
2023-01-02T08:05:21.497Z,1002.1
2023-01-02T08:06:37.740Z,1002
2023-01-02T08:07:53.959Z,1002
2023-01-02T08:09:10.202Z,1002.1
2023-01-02T08:10:26.447Z,1002
2023-01-02T08:11:41.695Z,1002.1
2023-01-02T08:12:57.000Z,1002
2023-01-02T08:14:14.177Z,1002.1
2023-01-02T08:15:30.419Z,1002.1
2023-01-02T08:16:46.656Z,1002.1
2023-01-02T08:18:02.882Z,1002.1
2023-01-02T08:19:19.141Z,1002.1
2023-01-02T08:20:35.372Z,1002.1
2023-01-02T08:21:51.609Z,1002.1
2023-01-02T08:23:07.854Z,1002.1
2023-01-02T08:24:24.084Z,1002.1
2023-01-02T08:25:40.320Z,1002
2023-01-02T08:26:56.572Z,1002
2023-01-02T08:28:11.810Z,1002
2023-01-02T08:29:28.062Z,1002
2023-01-02T08:30:44.288Z,1002
2023-01-02T08:32:00.533Z,1002
2023-01-02T08:33:16.760Z,1002
2023-01-02T08:34:33.013Z,1002
2023-01-02T08:35:49.239Z,1002
2023-01-02T08:37:05.483Z,1002
2023-01-02T08:38:21.724Z,1002
2023-01-02T08:39:37.971Z,1002
2023-01-02T08:40:54.198Z,1002
2023-01-02T08:42:10.436Z,1002.1
2023-01-02T08:43:26.676Z,1002
2023-01-02T08:44:41.931Z,1002
2023-01-02T08:45:58.168Z,1002
2023-01-02T08:47:14.398Z,1002
2023-01-02T08:48:30.642Z,1002
2023-01-02T08:49:46.890Z,1002
2023-01-02T08:51:03.133Z,1002
2023-01-02T08:52:19.371Z,1002
2023-01-02T08:53:35.610Z,1002
2023-01-02T08:54:51.834Z,1002
2023-01-02T08:56:08.074Z,1002
2023-01-02T08:57:24.309Z,1002.1
2023-01-02T08:58:40.552Z,1002.1
2023-01-02T08:59:56.800Z,1002.1
2023-01-02T09:01:12.057Z,1002.1
2023-01-02T09:02:28.286Z,1002.2
2023-01-02T09:03:44.530Z,1002.2
2023-01-02T09:05:00.763Z,1002.1
2023-01-02T09:06:17.003Z,1002.1
2023-01-02T09:07:33.247Z,1002.1
2023-01-02T09:08:48.496Z,1002.1
2023-01-02T09:10:04.733Z,1002.2
2023-01-02T09:11:20.980Z,1002.1
2023-01-02T09:12:37.224Z,1002.2
2023-01-02T09:13:53.457Z,1002.2
2023-01-02T09:15:09.690Z,1002.2
2023-01-02T09:16:25.940Z,1002.2
2023-01-02T09:17:42.160Z,1002.3
2023-01-02T09:18:58.408Z,1002.3
2023-01-02T09:20:14.639Z,1002.3
2023-01-02T09:21:30.894Z,1002.3
2023-01-02T09:22:47.130Z,1002.3
2023-01-02T09:24:03.368Z,1002.2
2023-01-02T09:25:18.611Z,1002.2
2023-01-02T09:26:34.856Z,1002.1
2023-01-02T09:27:51.086Z,1002.1
2023-01-02T09:29:07.336Z,1002.1
2023-01-02T09:30:23.574Z,1002.1
2023-01-02T09:31:39.801Z,1002.1
2023-01-02T09:32:56.044Z,1002.1
2023-01-02T09:34:12.293Z,1002.1
2023-01-02T09:35:28.515Z,1002.1
2023-01-02T09:36:44.755Z,1002.2
2023-01-02T09:38:01.002Z,1002.2
2023-01-02T09:39:17.242Z,1002.2
2023-01-02T09:40:33.477Z,1002.2
2023-01-02T09:41:48.736Z,1002.2
2023-01-02T09:43:04.974Z,1002.2
2023-01-02T09:44:21.212Z,1002.1
2023-01-02T09:45:37.440Z,1002.2
2023-01-02T09:46:53.680Z,1002.2
2023-01-02T09:48:09.919Z,1002.1
2023-01-02T09:49:26.154Z,1002.1
2023-01-02T09:50:42.400Z,1002.1
2023-01-02T09:51:58.642Z,1002.1
2023-01-02T09:53:14.884Z,1002.1
2023-01-02T09:54:31.118Z,1002.1
2023-01-02T09:55:47.364Z,1002.1
2023-01-02T09:57:03.618Z,1002
2023-01-02T09:58:18.844Z,1002
2023-01-02T09:59:35.086Z,1002
2023-01-02T10:00:51.321Z,1002
2023-01-02T10:02:07.568Z,1002
2023-01-02T10:03:23.806Z,1001.9
2023-01-02T10:04:40.050Z,1001.9
2023-01-02T10:05:56.277Z,1001.9
2023-01-02T10:07:12.527Z,1001.9
2023-01-02T10:08:28.746Z,1001.9
2023-01-02T10:09:44.995Z,1001.9
2023-01-02T10:11:01.236Z,1001.9
2023-01-02T10:12:17.483Z,1001.9
2023-01-02T10:13:33.705Z,1001.8
2023-01-02T10:14:48.959Z,1001.8
2023-01-02T10:16:05.201Z,1001.9
2023-01-02T10:17:21.453Z,1001.9
2023-01-02T10:18:37.685Z,1001.9
2023-01-02T10:19:53.925Z,1001.9
2023-01-02T10:21:10.158Z,1001.9
2023-01-02T10:22:26.389Z,1001.9
2023-01-02T10:23:42.643Z,1001.9
2023-01-02T10:24:58.881Z,1002
2023-01-02T10:26:15.121Z,1001.9
2023-01-02T10:27:31.354Z,1001.8
2023-01-02T10:28:47.593Z,1001.8
2023-01-02T10:30:03.836Z,1001.8
2023-01-02T10:31:19.085Z,1001.8
2023-01-02T10:32:35.319Z,1001.7
2023-01-02T10:33:51.551Z,1001.7
2023-01-02T10:35:07.797Z,1001.8
2023-01-02T10:36:24.046Z,1001.8
2023-01-02T10:37:40.267Z,1001.8
2023-01-02T10:38:56.000Z,1001.8
2023-01-02T10:40:12.742Z,1001.8
2023-01-02T10:41:28.983Z,1001.8
2023-01-02T10:42:45.219Z,1001.8
2023-01-02T10:44:01.474Z,1001.9
2023-01-02T10:45:17.707Z,1001.9
2023-01-02T10:46:33.947Z,1001.8
2023-01-02T10:47:49.190Z,1001.9
2023-01-02T10:49:05.439Z,1001.8
2023-01-02T10:50:21.666Z,1001.8
2023-01-02T10:51:37.920Z,1001.8
2023-01-02T10:52:54.157Z,1001.8
2023-01-02T10:54:10.390Z,1001.7
2023-01-02T10:55:26.634Z,1001.8
2023-01-02T10:56:42.875Z,1001.7
2023-01-02T10:57:59.099Z,1001.7
2023-01-02T10:59:15.335Z,1001.7
2023-01-02T11:00:31.593Z,1001.7
2023-01-02T11:01:47.820Z,1001.7
2023-01-02T11:03:04.052Z,1001.7
2023-01-02T11:04:19.323Z,1001.8
2023-01-02T11:05:35.556Z,1001.7
2023-01-02T11:06:51.800Z,1001.7
2023-01-02T11:08:08.037Z,1001.6
2023-01-02T11:09:24.262Z,1001.6
2023-01-02T11:10:40.504Z,1001.7
2023-01-02T11:11:56.748Z,1001.6
2023-01-02T11:13:12.994Z,1001.7
2023-01-02T11:14:29.220Z,1001.6
2023-01-02T11:15:45.471Z,1001.7
2023-01-02T11:17:01.691Z,1001.7
2023-01-02T11:18:17.934Z,1001.7
2023-01-02T11:19:34.171Z,1001.8
2023-01-02T11:20:49.000Z,1001.8
2023-01-02T11:22:05.663Z,1001.7
2023-01-02T11:23:21.914Z,1001.8
2023-01-02T11:24:38.151Z,1001.7
2023-01-02T11:25:54.392Z,1001.7
2023-01-02T11:27:10.629Z,1001.7
2023-01-02T11:28:26.872Z,1001.7
2023-01-02T11:29:43.102Z,1001.7
2023-01-02T11:30:59.341Z,1001.6
2023-01-02T11:32:15.586Z,1001.6
2023-01-02T11:33:31.824Z,1001.6
2023-01-02T11:34:48.049Z,1001.6
2023-01-02T11:36:04.284Z,1001.6
2023-01-02T11:37:19.551Z,1001.5
2023-01-02T11:38:35.788Z,1001.5
2023-01-02T11:39:52.023Z,1001.6
2023-01-02T11:41:08.263Z,1001.6
2023-01-02T11:42:24.505Z,1001.6
2023-01-02T11:43:40.750Z,1001.6
2023-01-02T11:44:56.973Z,1001.7
2023-01-02T11:46:13.209Z,1001.7
2023-01-02T11:47:29.459Z,1001.7
2023-01-02T11:48:45.688Z,1001.7
2023-01-02T11:50:01.924Z,1001.7
2023-01-02T11:51:18.178Z,1001.6
2023-01-02T11:52:34.405Z,1001.6
2023-01-02T11:53:49.656Z,1001.7
2023-01-02T11:55:05.904Z,1001.7
2023-01-02T11:56:22.143Z,1001.7
2023-01-02T11:57:38.384Z,1001.7
2023-01-02T11:58:54.622Z,1001.8
2023-01-02T12:00:10.847Z,1001.8
2023-01-02T12:01:27.097Z,1001.8
2023-01-02T12:02:43.336Z,1001.8
2023-01-02T12:03:59.576Z,1001.7
2023-01-02T12:05:15.806Z,1001.6
2023-01-02T12:06:32.056Z,1001.6
2023-01-02T12:07:48.286Z,1001.7
2023-01-02T12:09:04.524Z,1001.6
2023-01-02T12:10:19.779Z,1001.6
2023-01-02T12:11:36.025Z,1001.5
2023-01-02T12:12:52.267Z,1001.6
2023-01-02T12:14:08.488Z,1001.6
2023-01-02T12:15:24.742Z,1001.7
2023-01-02T12:16:40.968Z,1001.7
2023-01-02T12:17:57.214Z,1001.7
2023-01-02T12:19:13.459Z,1001.7
2023-01-02T12:20:29.679Z,1001.7
2023-01-02T12:23:02.000Z,1001.7
2023-01-02T12:24:18.405Z,1001.8
2023-01-02T12:25:34.639Z,1001.7
2023-01-02T12:26:49.906Z,1001.7
2023-01-02T12:28:06.142Z,1001.6
2023-01-02T12:29:22.370Z,1001.6
2023-01-02T12:30:38.605Z,1001.5
2023-01-02T12:31:54.847Z,1001.5
2023-01-02T12:33:11.099Z,1001.6
2023-01-02T12:34:27.332Z,1001.6
2023-01-02T12:35:43.558Z,1001.6
2023-01-02T12:36:59.808Z,1001.5
2023-01-02T12:38:16.045Z,1001.6
2023-01-02T12:39:32.281Z,1001.7
2023-01-02T12:40:48.512Z,1001.7
2023-01-02T12:42:04.762Z,1001.7
2023-01-02T12:43:20.007Z,1001.7
2023-01-02T12:44:36.247Z,1001.7
2023-01-02T12:45:52.492Z,1001.7
2023-01-02T12:47:08.738Z,1001.7
2023-01-02T12:48:24.960Z,1001.7
2023-01-02T12:49:41.214Z,1001.6
2023-01-02T12:50:57.451Z,1001.7
2023-01-02T12:52:13.681Z,1001.7
2023-01-02T12:53:29.914Z,1001.7
2023-01-02T12:54:46.157Z,1001.7
2023-01-02T12:56:02.395Z,1001.7
2023-01-02T12:57:18.642Z,1001.8
2023-01-02T12:58:34.882Z,1001.8
2023-01-02T12:59:50.140Z,1001.7
2023-01-02T13:01:06.377Z,1001.7
2023-01-02T13:02:22.597Z,1001.7
2023-01-02T13:03:38.853Z,1001.7
2023-01-02T13:04:55.090Z,1001.7
2023-01-02T13:06:11.328Z,1001.7
2023-01-02T13:07:27.560Z,1001.8
2023-01-02T13:08:43.806Z,1001.8
2023-01-02T13:10:00.038Z,1001.8
2023-01-02T13:11:16.268Z,1001.9
2023-01-02T13:12:32.505Z,1001.9
2023-01-02T13:13:48.747Z,1001.9
2023-01-02T13:15:04.984Z,1001.8
2023-01-02T13:16:20.253Z,1001.8
2023-01-02T13:17:36.485Z,1001.9
2023-01-02T13:18:52.721Z,1001.9
2023-01-02T13:20:08.959Z,1001.9
2023-01-02T13:21:25.193Z,1002
2023-01-02T13:22:41.435Z,1002
2023-01-02T13:23:56.696Z,1002
2023-01-02T13:25:12.929Z,1002
2023-01-02T13:26:29.175Z,1002
2023-01-02T13:27:45.422Z,1002
2023-01-02T13:29:01.657Z,1002
2023-01-02T13:30:17.888Z,1002
2023-01-02T13:31:34.123Z,1002
2023-01-02T13:32:50.361Z,1002.1
2023-01-02T13:34:06.597Z,1002.1
2023-01-02T13:35:22.844Z,1002.1
2023-01-02T13:36:39.087Z,1002.1
2023-01-02T13:37:55.320Z,1002.1
2023-01-02T13:39:11.568Z,1002.1
2023-01-02T13:40:26.813Z,1002.1
2023-01-02T13:41:43.056Z,1002.1
2023-01-02T13:42:59.296Z,1002
2023-01-02T13:44:15.529Z,1002.1
2023-01-02T13:45:31.766Z,1002.1
2023-01-02T13:46:48.012Z,1002.1
2023-01-02T13:48:04.251Z,1002.1
2023-01-02T13:49:20.484Z,1002.2
2023-01-02T13:50:36.724Z,1002.2
2023-01-02T13:51:52.964Z,1002.2
2023-01-02T13:53:09.191Z,1002.3
2023-01-02T13:54:25.427Z,1002.3
2023-01-02T13:55:41.668Z,1002.3
2023-01-02T13:56:56.932Z,1002.3
2023-01-02T13:58:13.160Z,1002.4
2023-01-02T13:59:29.408Z,1002.3
2023-01-02T14:00:45.640Z,1002.4
2023-01-02T14:02:01.886Z,1002.3
2023-01-02T14:03:18.126Z,1002.3
2023-01-02T14:04:34.363Z,1002.4
2023-01-02T14:05:50.593Z,1002.4
2023-01-02T14:07:06.830Z,1002.4
2023-01-02T14:08:23.083Z,1002.4
2023-01-02T14:09:39.311Z,1002.3
2023-01-02T14:10:55.544Z,1002.4
2023-01-02T14:12:11.801Z,1002.4
2023-01-02T14:13:27.056Z,1002.4
2023-01-02T14:14:43.284Z,1002.4
2023-01-02T14:15:59.521Z,1002.4
2023-01-02T14:17:15.758Z,1002.4
2023-01-02T14:18:32.009Z,1002.4
2023-01-02T14:19:48.237Z,1002.4
2023-01-02T14:21:04.475Z,1002.4
2023-01-02T14:22:20.000Z,1002.4
2023-01-02T14:23:36.964Z,1002.5
2023-01-02T14:24:53.201Z,1002.5
2023-01-02T14:26:09.431Z,1002.5
2023-01-02T14:27:25.660Z,1002.5
2023-01-02T14:28:41.911Z,1002.4
2023-01-02T14:29:57.160Z,1002.4
2023-01-02T14:31:13.413Z,1002.5
2023-01-02T14:32:29.645Z,1002.6
2023-01-02T14:33:45.879Z,1002.6
2023-01-02T14:35:02.110Z,1002.6
2023-01-02T14:36:18.364Z,1002.6
2023-01-02T14:37:34.596Z,1002.7
2023-01-02T14:38:50.831Z,1002.6
2023-01-02T14:40:07.074Z,1002.8
2023-01-02T14:41:23.302Z,1002.7
2023-01-02T14:42:39.541Z,1002.8
2023-01-02T14:43:55.790Z,1002.8
2023-01-02T14:45:12.035Z,1002.8
2023-01-02T14:46:27.275Z,1002.8
2023-01-02T14:47:43.511Z,1002.8
2023-01-02T14:48:59.757Z,1002.8
2023-01-02T14:50:15.992Z,1002.8
2023-01-02T14:51:32.233Z,1002.8
2023-01-02T14:52:48.481Z,1002.9
2023-01-02T14:54:04.715Z,1002.9
2023-01-02T14:55:20.954Z,1003
2023-01-02T14:56:37.179Z,1003
2023-01-02T14:57:53.436Z,1003
2023-01-02T14:59:09.661Z,1003
2023-01-02T15:00:25.910Z,1003.1
2023-01-02T15:01:42.143Z,1003.1
2023-01-02T15:02:57.387Z,1003.1
2023-01-02T15:04:13.634Z,1003.1
2023-01-02T15:05:29.869Z,1003.1
2023-01-02T15:06:46.116Z,1003.2
2023-01-02T15:08:02.356Z,1003.1
2023-01-02T15:09:18.594Z,1003.1
2023-01-02T15:10:34.830Z,1003.1
2023-01-02T15:11:51.072Z,1003.2
2023-01-02T15:13:07.304Z,1003.2
2023-01-02T15:14:23.540Z,1003.2
2023-01-02T15:15:39.775Z,1003.2
2023-01-02T15:16:56.018Z,1003.3
2023-01-02T15:18:12.260Z,1003.3
2023-01-02T15:19:27.509Z,1003.3
2023-01-02T15:20:43.744Z,1003.2
2023-01-02T15:21:59.986Z,1003.3
2023-01-02T15:23:16.236Z,1003.3
2023-01-02T15:24:32.465Z,1003.2
2023-01-02T15:25:48.707Z,1003.3
2023-01-02T15:27:04.942Z,1003.2
2023-01-02T15:28:21.192Z,1003.3
2023-01-02T15:29:37.415Z,1003.4
2023-01-02T15:30:53.652Z,1003.4
2023-01-02T15:32:09.894Z,1003.4
2023-01-02T15:33:26.142Z,1003.4
2023-01-02T15:34:42.382Z,1003.5
2023-01-02T15:35:57.640Z,1003.4
2023-01-02T15:37:13.876Z,1003.4
2023-01-02T15:38:30.112Z,1003.4
2023-01-02T15:39:46.335Z,1003.4
2023-01-02T15:41:02.584Z,1003.5
2023-01-02T15:42:18.885Z,1003.5
2023-01-02T15:43:35.169Z,1003.6
2023-01-02T15:44:51.464Z,1003.5
2023-01-02T15:46:07.765Z,1003.5
2023-01-02T15:47:24.058Z,1003.5
2023-01-02T15:48:40.344Z,1003.5
2023-01-02T15:49:56.629Z,1003.5
2023-01-02T15:51:12.000Z,1003.5
2023-01-02T15:52:28.000Z,1003.6
2023-01-02T15:53:44.524Z,1003.5
2023-01-02T15:55:00.810Z,1003.5
2023-01-02T15:56:17.110Z,1003.6
2023-01-02T15:57:33.398Z,1003.6
2023-01-02T15:58:49.698Z,1003.7
2023-01-02T16:00:05.996Z,1003.8
2023-01-02T16:01:22.272Z,1003.8